Sunset Colony, South Dakota
Current Conditions -  °F | °C
As of 12:15 AM on Thursday 23 Oct 2014 (Local Time) from KGWR Reporting Station
Clear Clear  
Wind Chill: 50°   Ceiling: Unl
Heat Index: 50°   Visibility: 10mi
Dew Point: 50°   Wind: 12mph
Humidity: 100%   Direction: 230°SW
Pressure: 29.93"   Gusts: NA
Location:  45.8144°N, 97.7089°W
Report Text: KGWR 230515Z AUTO 23010KT 10SM CLR 10/10 A2993 RMK A01 P000
Loading
Personal Weather Stations






























Interactive Weather Map New forecast layout! Learn more

10-Day Weather Forecast

Advertisements
Track Severe Weather on mobile